Impacts TAF Board
For situational awareness. Not to be used for flight planning purposes.
IDs:

KSEA - Seattle-Tacoma Intl, WA, US

Issued at 2324 UTC 23 Oct 2019
Updated at 0258 UTC 24 Oct 2019
Potential Impact None Slight Moderate High
Time<<25/03Z 25/04Z 25/05Z 25/06Z 25/07Z 25/08Z 25/09Z 25/10Z 25/11Z 25/12Z 25/13Z 25/14Z 25/15Z
Type PRVL PRVL PRVL
VIS >6 >6 >6
CIG 250 250 250
Cover BKN BKN BKN
FltCat VFR VFR VFR
WX -- -- --
WDir 350 20 20
WSpd 5 3 3
WGst -- -- --
Raw TAF
KSEA 232324Z 2400/2506 35007KT P6SM BKN250
  FM240900 04005KT 5SM BR OVC250
  FM241200 10003KT 1SM BR SCT004 OVC250
  FM241800 35005KT P6SM BKN250
  FM250400 02003KT P6SM BKN250


METAR Board
Radar Display
Forecast Discussion
For situational awareness. Not to be used for flight planning purposes.